Terminal Aerodrome Forecast
Issued by NWS Charleston, WV

Current Version | Previous Version | Graphics & Text | Print | Product List | Glossary On
Versions: 1 2 3 4 5 6 7 8 9 10 11 12 13 14 15 16 17 18 19 20 21 22 23 24 25 26
000
FTUS41 KRLX 221100
TAFCRW
TAF
KCRW 221139Z 2212/2312 31005KT 4SM -RA BR OVC004
      TEMPO 2213/2214 P6SM NSW SCT004 BKN012
     FM221400 32006KT P6SM OVC012
     FM221800 32007KT P6SM OVC025
     FM222200 32006KT P6SM BKN030
     FM230000 31005KT P6SM BKN035
     FM230400 33005KT P6SM BKN250=

USA.gov is the U.S. government's official web portal to all federal, state and local government web resources and services.